createdAt,value
2019-05-29T00:00:05.784Z,0.00
2019-05-29T00:01:08.944Z,0.00
2019-05-29T00:02:05.991Z,0.00
2019-05-29T00:03:06.131Z,0.00
2019-05-29T00:04:04.605Z,0.00
2019-05-29T00:05:04.594Z,0.00
2019-05-29T00:06:04.593Z,0.00
2019-05-29T00:07:04.584Z,0.00
2019-05-29T00:08:04.573Z,0.00
2019-05-29T00:09:04.578Z,0.00
2019-05-29T00:10:04.551Z,0.00
2019-05-29T00:11:04.538Z,0.00
2019-05-29T00:12:04.566Z,0.00
2019-05-29T00:13:04.506Z,0.00
2019-05-29T00:14:18.726Z,0.00
2019-05-29T00:15:06.189Z,0.00
2019-05-29T00:16:04.486Z,0.00
2019-05-29T00:17:04.472Z,0.00
2019-05-29T00:18:04.450Z,0.00
2019-05-29T00:19:04.440Z,0.00
2019-05-29T00:20:04.444Z,0.00
2019-05-29T00:21:04.451Z,0.00
2019-05-29T00:22:04.417Z,0.00
2019-05-29T00:23:04.412Z,0.00
2019-05-29T00:24:04.386Z,0.00
2019-05-29T00:25:04.387Z,0.00
2019-05-29T00:26:04.362Z,0.00
2019-05-29T00:27:05.391Z,0.00
2019-05-29T00:28:04.347Z,0.00
2019-05-29T00:29:05.551Z,0.00
2019-05-29T00:30:04.326Z,0.00
2019-05-29T00:31:05.686Z,0.00
2019-05-29T00:32:04.324Z,0.00
2019-05-29T00:33:04.298Z,0.00
2019-05-29T00:34:04.282Z,0.00
2019-05-29T00:35:04.281Z,0.00
2019-05-29T00:36:04.270Z,0.00
2019-05-29T00:37:04.272Z,0.00
2019-05-29T00:38:04.250Z,0.00
2019-05-29T00:39:04.274Z,0.00
2019-05-29T00:40:04.225Z,0.00
2019-05-29T00:41:04.216Z,0.00
2019-05-29T00:42:04.210Z,0.00
2019-05-29T00:43:04.198Z,0.00
2019-05-29T00:44:04.189Z,0.00
2019-05-29T00:45:04.176Z,0.00
2019-05-29T00:46:04.154Z,0.00
2019-05-29T00:47:04.173Z,0.00
2019-05-29T00:48:04.156Z,0.00
2019-05-29T00:49:04.115Z,0.00
2019-05-29T00:50:04.102Z,0.00
2019-05-29T00:51:04.099Z,0.00
2019-05-29T00:52:04.135Z,0.00
2019-05-29T00:53:04.077Z,0.00
2019-05-29T00:54:04.082Z,0.00
2019-05-29T00:55:04.077Z,0.00
2019-05-29T00:56:04.050Z,0.00
2019-05-29T00:57:04.061Z,0.00
2019-05-29T00:58:04.033Z,0.00
2019-05-29T00:59:04.007Z,0.00
2019-05-29T01:00:03.999Z,0.00
2019-05-29T01:01:03.985Z,0.00
2019-05-29T01:02:03.998Z,0.00
2019-05-29T01:03:03.964Z,0.00
2019-05-29T01:04:03.953Z,0.00
2019-05-29T01:05:03.953Z,0.00
2019-05-29T01:06:03.927Z,0.00
2019-05-29T01:07:03.990Z,0.00
2019-05-29T01:08:03.911Z,0.00
2019-05-29T01:09:03.949Z,0.00
2019-05-29T01:10:03.895Z,0.00
2019-05-29T01:11:03.881Z,0.00
2019-05-29T01:12:03.870Z,0.00
2019-05-29T01:13:03.877Z,0.00
2019-05-29T01:14:03.861Z,0.00
2019-05-29T01:15:03.831Z,0.00
2019-05-29T01:16:03.822Z,0.00
2019-05-29T01:17:03.820Z,0.00
2019-05-29T01:18:03.822Z,0.00
2019-05-29T01:19:03.791Z,0.00
2019-05-29T01:20:03.791Z,0.00
2019-05-29T01:21:03.771Z,0.00
2019-05-29T01:22:03.847Z,0.00
2019-05-29T01:23:03.760Z,0.00
2019-05-29T01:24:03.737Z,0.00
2019-05-29T01:25:03.746Z,0.00
2019-05-29T01:26:03.780Z,0.00
2019-05-29T01:27:03.780Z,0.00
2019-05-29T01:28:03.706Z,0.00
2019-05-29T01:29:03.683Z,0.00
2019-05-29T01:30:03.686Z,0.00
2019-05-29T01:31:03.677Z,0.00
2019-05-29T01:32:03.684Z,0.00
2019-05-29T01:33:03.654Z,0.00
2019-05-29T01:34:03.632Z,0.00
2019-05-29T01:35:03.642Z,0.00
2019-05-29T01:36:03.600Z,0.00
2019-05-29T01:37:03.591Z,0.00
2019-05-29T01:38:03.590Z,0.00
2019-05-29T01:39:03.586Z,0.00
2019-05-29T01:40:18.693Z,0.00
2019-05-29T01:41:04.546Z,0.00
2019-05-29T01:42:03.534Z,0.00
2019-05-29T01:43:03.540Z,0.00
2019-05-29T01:44:03.551Z,0.00
2019-05-29T01:45:08.285Z,0.00
2019-05-29T01:46:04.490Z,0.00
2019-05-29T01:47:03.480Z,0.00
2019-05-29T01:48:03.470Z,0.00
2019-05-29T01:49:03.476Z,0.00
2019-05-29T01:50:03.471Z,0.00
2019-05-29T01:51:03.459Z,0.00
2019-05-29T01:52:03.432Z,0.00
2019-05-29T01:53:03.419Z,0.00
2019-05-29T01:54:03.436Z,0.00
2019-05-29T01:55:03.399Z,0.00
2019-05-29T01:56:03.399Z,0.00
2019-05-29T01:57:03.395Z,0.00
2019-05-29T01:58:03.402Z,0.00
2019-05-29T01:59:03.364Z,0.00
2019-05-29T02:00:03.380Z,0.00
2019-05-29T02:01:03.334Z,0.00
2019-05-29T02:02:03.322Z,0.00
2019-05-29T02:03:03.334Z,0.00
2019-05-29T02:04:03.362Z,0.00
2019-05-29T02:05:03.291Z,0.00
2019-05-29T02:06:03.275Z,0.00
2019-05-29T02:07:03.264Z,0.00
2019-05-29T02:08:03.266Z,4.00
2019-05-29T02:09:03.283Z,4.00
2019-05-29T02:10:03.246Z,4.00
2019-05-29T02:11:03.240Z,0.00
2019-05-29T02:12:03.213Z,4.00
2019-05-29T02:13:03.257Z,4.00
2019-05-29T02:14:03.189Z,4.00
2019-05-29T02:15:03.194Z,4.00
2019-05-29T02:16:03.167Z,4.00
2019-05-29T02:17:03.163Z,8.00
2019-05-29T02:18:03.159Z,8.00
2019-05-29T02:19:03.192Z,8.00
2019-05-29T02:20:03.151Z,8.00
2019-05-29T02:21:03.138Z,8.00
2019-05-29T02:22:03.115Z,12.00
2019-05-29T02:23:03.111Z,12.00
2019-05-29T02:24:03.086Z,12.00
2019-05-29T02:25:03.091Z,16.00
2019-05-29T02:26:03.087Z,20.00
2019-05-29T02:27:03.081Z,16.00
2019-05-29T02:28:03.040Z,24.00
2019-05-29T02:29:03.042Z,24.00
2019-05-29T02:30:03.030Z,28.00
2019-05-29T02:31:03.008Z,32.00
2019-05-29T02:32:03.009Z,36.00
2019-05-29T02:33:02.983Z,40.00
2019-05-29T02:34:07.242Z,44.00
2019-05-29T02:35:02.989Z,48.00
2019-05-29T02:36:02.961Z,56.00
2019-05-29T02:37:02.952Z,60.00
2019-05-29T02:38:02.951Z,68.00
2019-05-29T02:39:02.933Z,76.00
2019-05-29T02:40:02.927Z,80.00
2019-05-29T02:41:02.919Z,92.00
2019-05-29T02:42:02.906Z,96.00
2019-05-29T02:43:02.880Z,104.00
2019-05-29T02:44:02.880Z,112.00
2019-05-29T02:45:02.866Z,124.00
2019-05-29T02:46:02.858Z,136.00
2019-05-29T02:47:02.868Z,152.00
2019-05-29T02:48:02.822Z,164.00
2019-05-29T02:49:02.833Z,180.00
2019-05-29T02:50:02.798Z,188.00
2019-05-29T02:51:02.801Z,196.00
2019-05-29T02:52:02.800Z,204.00
2019-05-29T02:53:02.760Z,212.00
2019-05-29T02:54:02.753Z,224.00
2019-05-29T02:55:02.740Z,236.00
2019-05-29T02:56:02.749Z,248.00
2019-05-29T02:57:02.726Z,264.00
2019-05-29T02:58:02.734Z,276.00
2019-05-29T02:59:02.725Z,292.00
2019-05-29T03:00:02.712Z,308.00
2019-05-29T03:01:02.693Z,332.00
2019-05-29T03:02:02.678Z,356.00
2019-05-29T03:03:02.656Z,380.00
2019-05-29T03:04:02.652Z,404.00
2019-05-29T03:05:02.636Z,428.00
2019-05-29T03:06:02.668Z,456.00
2019-05-29T03:07:02.641Z,488.00
2019-05-29T03:08:02.600Z,520.00
2019-05-29T03:09:02.589Z,552.00
2019-05-29T03:10:02.580Z,580.00
2019-05-29T03:11:02.606Z,604.00
2019-05-29T03:12:02.597Z,636.00
2019-05-29T03:13:02.545Z,664.00
2019-05-29T03:14:02.533Z,700.00
2019-05-29T03:15:02.521Z,736.00
2019-05-29T03:16:10.364Z,776.00
2019-05-29T03:17:03.526Z,816.00
2019-05-29T03:18:02.491Z,856.00
2019-05-29T03:19:02.490Z,896.00
2019-05-29T03:20:02.475Z,936.00
2019-05-29T03:21:02.459Z,976.00
2019-05-29T03:22:02.479Z,1000.00
2019-05-29T03:23:02.447Z,1032.00
2019-05-29T03:24:02.430Z,1076.00
2019-05-29T03:25:02.418Z,1136.00
2019-05-29T03:26:02.416Z,1200.00
2019-05-29T03:27:02.421Z,1256.00
2019-05-29T03:28:02.401Z,1304.00
2019-05-29T03:29:02.374Z,1336.00
2019-05-29T03:30:02.379Z,1360.00
2019-05-29T03:31:02.441Z,1384.00
2019-05-29T03:32:02.359Z,1432.00
2019-05-29T03:33:02.349Z,1480.00
2019-05-29T03:34:02.329Z,1536.00
2019-05-29T03:35:02.307Z,1592.00
2019-05-29T03:36:02.316Z,1640.00
2019-05-29T03:37:02.294Z,1668.00
2019-05-29T03:38:02.306Z,1696.00
2019-05-29T03:39:02.262Z,1712.00
2019-05-29T03:40:02.259Z,1716.00
2019-05-29T03:41:02.258Z,1716.00
2019-05-29T03:42:02.230Z,1720.00
2019-05-29T03:43:02.241Z,1756.00
2019-05-29T03:44:02.229Z,1812.00
2019-05-29T03:45:02.215Z,1852.00
2019-05-29T03:46:02.201Z,1912.00
2019-05-29T03:47:02.214Z,1984.00
2019-05-29T03:48:02.179Z,2096.00
2019-05-29T03:49:02.168Z,2192.00
2019-05-29T03:50:02.156Z,2284.00
2019-05-29T03:51:02.134Z,2360.00
2019-05-29T03:52:02.152Z,2412.00
2019-05-29T03:53:02.127Z,2484.00
2019-05-29T03:54:02.108Z,2540.00
2019-05-29T03:55:02.123Z,2548.00
2019-05-29T03:56:02.083Z,2512.00
2019-05-29T03:57:02.074Z,2416.00
2019-05-29T03:58:02.094Z,2304.00
2019-05-29T03:59:02.057Z,2276.00
2019-05-29T04:00:02.041Z,2220.00
2019-05-29T04:01:02.039Z,2256.00
2019-05-29T04:02:02.017Z,2260.00
2019-05-29T04:03:02.035Z,2312.00
2019-05-29T04:04:02.025Z,2352.00
2019-05-29T04:05:02.122Z,2436.00
2019-05-29T04:06:01.987Z,2512.00
2019-05-29T04:07:01.962Z,2580.00
2019-05-29T04:08:01.960Z,2684.00
2019-05-29T04:09:01.955Z,2772.00
2019-05-29T04:10:01.984Z,2864.00
2019-05-29T04:11:01.932Z,2900.00
2019-05-29T04:12:01.923Z,2912.00
2019-05-29T04:13:01.900Z,2880.00
2019-05-29T04:14:01.914Z,2876.00
2019-05-29T04:15:01.892Z,2940.00
2019-05-29T04:16:01.876Z,3012.00
2019-05-29T04:17:01.878Z,3096.00
2019-05-29T04:18:01.842Z,3196.00
2019-05-29T04:19:01.867Z,3316.00
2019-05-29T04:20:01.818Z,3388.00
2019-05-29T04:21:01.816Z,3480.00
2019-05-29T04:22:01.817Z,3520.00
2019-05-29T04:23:01.791Z,3508.00
2019-05-29T04:24:01.816Z,3468.00
2019-05-29T04:25:01.770Z,3416.00
2019-05-29T04:26:01.772Z,3332.00
2019-05-29T04:27:01.739Z,3276.00
2019-05-29T04:28:01.733Z,3276.00
2019-05-29T04:29:01.737Z,3348.00
2019-05-29T04:30:01.734Z,3372.00
2019-05-29T04:31:01.710Z,3440.00
2019-05-29T04:32:01.696Z,3540.00
2019-05-29T04:33:01.679Z,3672.00
2019-05-29T04:34:01.673Z,3760.00
2019-05-29T04:35:01.681Z,3828.00
2019-05-29T04:36:01.675Z,3900.00
2019-05-29T04:37:01.635Z,3928.00
2019-05-29T04:38:01.637Z,4212.00
2019-05-29T04:39:01.619Z,4420.00
2019-05-29T04:40:01.650Z,4544.00
2019-05-29T04:41:01.600Z,4724.00
2019-05-29T04:42:01.592Z,4856.00
2019-05-29T04:43:01.581Z,4984.00
2019-05-29T04:44:01.553Z,5116.00
2019-05-29T04:45:01.589Z,5188.00
2019-05-29T04:46:01.537Z,5284.00
2019-05-29T04:47:11.014Z,5324.00
2019-05-29T04:48:02.533Z,5364.00
2019-05-29T04:49:01.507Z,5420.00
2019-05-29T04:50:01.516Z,5468.00
2019-05-29T04:51:01.474Z,5556.00
2019-05-29T04:52:01.468Z,5596.00
2019-05-29T04:53:01.471Z,5632.00
2019-05-29T04:54:01.451Z,5712.00
2019-05-29T04:55:01.465Z,5656.00
2019-05-29T04:56:01.427Z,5652.00
2019-05-29T04:57:01.410Z,5808.00
2019-05-29T04:58:01.397Z,5704.00
2019-05-29T04:59:01.390Z,5888.00
2019-05-29T05:00:01.413Z,5948.00
2019-05-29T05:01:01.364Z,6068.00
2019-05-29T05:02:01.390Z,6232.00
2019-05-29T05:03:01.358Z,6396.00
2019-05-29T05:04:01.350Z,6592.00
2019-05-29T05:05:01.338Z,6804.00
2019-05-29T05:06:01.344Z,6932.00
2019-05-29T05:07:01.309Z,6940.00
2019-05-29T05:08:01.301Z,7016.00
2019-05-29T05:09:01.279Z,7172.00
2019-05-29T05:10:01.284Z,7436.00
2019-05-29T05:11:01.283Z,7896.00
2019-05-29T05:12:01.267Z,8200.00
2019-05-29T05:13:01.239Z,8672.00
2019-05-29T05:14:01.857Z,9200.00
2019-05-29T05:15:01.215Z,9836.00
2019-05-29T05:16:01.217Z,10620.00
2019-05-29T05:17:01.212Z,11312.00
2019-05-29T05:18:01.177Z,11808.00
2019-05-29T05:19:01.170Z,12420.00
2019-05-29T05:20:01.161Z,13400.00
2019-05-29T05:21:01.176Z,12788.00
2019-05-29T05:22:01.162Z,13624.00
2019-05-29T05:23:01.127Z,15584.00
2019-05-29T05:24:01.127Z,17792.00
2019-05-29T05:25:01.200Z,17792.00
2019-05-29T05:26:01.109Z,17824.00
2019-05-29T05:27:01.083Z,17120.00
2019-05-29T05:28:01.079Z,18208.00
2019-05-29T05:29:01.075Z,19040.00
2019-05-29T05:30:01.049Z,20992.00
2019-05-29T05:31:01.045Z,21056.00
2019-05-29T05:32:01.043Z,20736.00
2019-05-29T05:33:01.022Z,21888.00
2019-05-29T05:34:01.023Z,22528.00
2019-05-29T05:35:00.995Z,23168.00
2019-05-29T05:36:01.013Z,21472.00
2019-05-29T05:37:00.979Z,21920.00
2019-05-29T05:38:01.001Z,23808.00
2019-05-29T05:39:01.005Z,23680.00
2019-05-29T05:40:00.937Z,17056.00
2019-05-29T05:41:00.945Z,19008.00
2019-05-29T05:42:00.934Z,18656.00
2019-05-29T05:43:00.917Z,19008.00
2019-05-29T05:44:00.897Z,25248.00
2019-05-29T05:45:00.884Z,19552.00
2019-05-29T05:46:00.898Z,23136.00
2019-05-29T05:47:00.858Z,27136.00
2019-05-29T05:48:00.857Z,27328.00
2019-05-29T05:49:00.838Z,28352.00
2019-05-29T05:50:00.839Z,29568.00
2019-05-29T05:51:00.822Z,29792.00
2019-05-29T05:52:00.831Z,29728.00
2019-05-29T05:53:00.801Z,30016.00
2019-05-29T05:54:00.783Z,30848.00
2019-05-29T05:55:00.782Z,31008.00
2019-05-29T05:56:00.760Z,29536.00
2019-05-29T05:57:00.769Z,31232.00
2019-05-29T05:58:00.738Z,32192.00
2019-05-29T05:59:00.736Z,34432.00
2019-05-29T06:00:00.727Z,29056.00
2019-05-29T06:01:00.706Z,38304.00
2019-05-29T06:02:00.714Z,32448.00
2019-05-29T06:03:00.692Z,24576.00
2019-05-29T06:04:00.678Z,24928.00
2019-05-29T06:05:00.669Z,26240.00
2019-05-29T06:06:00.656Z,32000.00
2019-05-29T06:07:00.658Z,31936.00
2019-05-29T06:08:00.637Z,25152.00
2019-05-29T06:09:00.623Z,25792.00
2019-05-29T06:10:00.634Z,28512.00
2019-05-29T06:11:00.600Z,22400.00
2019-05-29T06:12:00.602Z,20768.00
2019-05-29T06:13:00.585Z,19840.00
2019-05-29T06:14:00.576Z,18432.00
2019-05-29T06:15:00.574Z,17728.00
2019-05-29T06:16:00.552Z,17440.00
2019-05-29T06:17:00.547Z,17376.00
2019-05-29T06:18:19.431Z,17024.00
2019-05-29T06:19:01.513Z,17216.00
2019-05-29T06:20:00.502Z,17760.00
2019-05-29T06:21:00.531Z,18304.00
2019-05-29T06:22:00.506Z,21504.00
2019-05-29T06:23:00.474Z,19392.00
2019-05-29T06:24:00.466Z,22592.00
2019-05-29T06:25:00.449Z,20352.00
2019-05-29T06:26:00.442Z,24544.00
2019-05-29T06:27:00.453Z,34144.00
2019-05-29T06:28:00.427Z,29856.00
2019-05-29T06:29:00.407Z,38080.00
2019-05-29T06:30:00.408Z,46656.00
2019-05-29T06:31:00.405Z,45056.00
2019-05-29T06:32:00.379Z,45888.00
2019-05-29T06:33:00.390Z,47936.00
2019-05-29T06:34:00.363Z,46016.00
2019-05-29T06:35:00.348Z,43264.00
2019-05-29T06:36:00.346Z,44608.00
2019-05-29T06:37:00.323Z,47392.00
2019-05-29T06:38:00.330Z,45824.00
2019-05-29T06:39:00.304Z,44288.00
2019-05-29T06:40:00.296Z,46240.00
2019-05-29T06:41:00.278Z,48416.00
2019-05-29T06:42:00.277Z,47296.00
2019-05-29T06:43:00.276Z,46304.00
2019-05-29T06:44:00.242Z,48608.00
2019-05-29T06:45:00.379Z,52768.00
2019-05-29T06:46:00.220Z,52608.00
2019-05-29T06:47:00.210Z,51136.00
2019-05-29T06:48:00.218Z,48832.00
2019-05-29T06:49:01.147Z,49504.00
2019-05-29T06:50:00.180Z,47776.00
2019-05-29T06:51:00.181Z,46976.00
2019-05-29T06:52:00.157Z,48288.00
2019-05-29T06:53:00.157Z,51616.00
2019-05-29T06:54:00.139Z,53632.00
2019-05-29T06:55:00.160Z,44832.00
2019-05-29T06:56:01.481Z,46208.00
2019-05-29T06:57:00.106Z,53888.00
2019-05-29T06:58:00.107Z,44032.00
2019-05-29T06:59:00.081Z,42944.00
2019-05-29T07:00:00.069Z,43520.00
2019-05-29T07:01:00.062Z,46944.00
2019-05-29T07:02:00.047Z,45440.00
2019-05-29T07:03:00.086Z,49152.00
2019-05-29T07:04:11.494Z,50560.00
2019-05-29T07:05:01.015Z,50880.00
2019-05-29T07:06:00.007Z,50400.00
2019-05-29T07:06:59.992Z,53152.00
2019-05-29T07:08:16.848Z,55936.00
2019-05-29T07:09:00.971Z,59584.00
2019-05-29T07:09:59.959Z,57472.00
2019-05-29T07:10:59.949Z,46560.00
2019-05-29T07:11:59.939Z,51488.00
2019-05-29T07:12:59.930Z,51776.00
2019-05-29T07:13:59.932Z,58080.00
2019-05-29T07:14:59.906Z,59200.00
2019-05-29T07:15:59.899Z,58240.00
2019-05-29T07:16:59.885Z,55744.00
2019-05-29T07:17:59.874Z,53504.00
2019-05-29T07:20:04.128Z,51936.00
2019-05-29T07:20:59.846Z,53248.00
2019-05-29T07:21:59.840Z,53728.00
2019-05-29T07:22:59.823Z,54336.00
2019-05-29T07:23:59.840Z,51776.00
2019-05-29T07:24:59.810Z,51328.00
2019-05-29T07:25:59.790Z,54976.00
2019-05-29T07:26:59.789Z,56608.00
2019-05-29T07:27:59.770Z,56352.00
2019-05-29T07:29:08.102Z,57056.00
2019-05-29T07:30:00.776Z,59072.00
2019-05-29T07:31:03.152Z,64672.00
2019-05-29T07:31:59.733Z,67776.00
2019-05-29T07:32:59.715Z,65792.00
2019-05-29T07:33:59.714Z,64608.00
2019-05-29T07:35:03.577Z,35680.00
2019-05-29T07:35:59.682Z,21568.00
2019-05-29T07:36:59.674Z,18336.00
2019-05-29T07:37:59.662Z,17536.00
2019-05-29T07:39:03.668Z,25504.00
2019-05-29T07:39:59.652Z,15936.00
2019-05-29T07:40:59.657Z,13948.00
2019-05-29T07:41:59.624Z,14772.00
2019-05-29T07:42:59.614Z,16192.00
2019-05-29T07:43:59.597Z,17728.00
2019-05-29T07:44:59.614Z,52000.00
2019-05-29T07:45:59.574Z,22944.00
2019-05-29T07:46:59.571Z,76576.00
2019-05-29T07:47:59.570Z,17984.00
2019-05-29T07:48:59.562Z,15308.00
2019-05-29T07:49:59.556Z,13944.00
2019-05-29T07:51:06.927Z,12960.00
2019-05-29T07:52:00.515Z,12600.00
2019-05-29T07:52:59.519Z,12892.00
2019-05-29T07:53:59.485Z,14392.00
2019-05-29T07:54:59.482Z,15484.00
2019-05-29T07:55:59.481Z,15812.00
2019-05-29T07:56:59.454Z,16384.00
2019-05-29T07:57:59.444Z,14916.00
2019-05-29T07:59:03.340Z,14492.00
2019-05-29T07:59:59.427Z,34528.00
2019-05-29T08:01:11.674Z,66624.00
2019-05-29T08:02:00.410Z,12064.00
2019-05-29T08:02:59.391Z,11056.00
2019-05-29T08:03:59.383Z,11024.00
2019-05-29T08:04:59.373Z,10984.00
2019-05-29T08:05:59.384Z,12536.00
2019-05-29T08:06:59.346Z,15492.00
2019-05-29T08:07:59.341Z,37888.00
2019-05-29T08:08:59.330Z,52128.00
2019-05-29T08:09:59.317Z,78496.00
2019-05-29T08:10:59.318Z,52896.00
2019-05-29T08:11:59.319Z,50336.00
2019-05-29T08:12:59.289Z,53664.00
2019-05-29T08:13:59.272Z,61376.00
2019-05-29T08:14:59.262Z,67392.00
2019-05-29T08:16:02.992Z,21280.00
2019-05-29T08:16:59.258Z,59360.00
2019-05-29T08:17:59.227Z,26944.00
2019-05-29T08:18:59.216Z,20288.00
2019-05-29T08:20:06.592Z,20384.00
2019-05-29T08:21:00.197Z,19328.00
2019-05-29T08:21:59.200Z,19520.00
2019-05-29T08:22:59.174Z,21184.00
2019-05-29T08:23:59.160Z,22112.00
2019-05-29T08:24:59.172Z,21984.00
2019-05-29T08:25:59.141Z,21376.00
2019-05-29T08:26:59.146Z,19232.00
2019-05-29T08:27:59.112Z,17568.00
2019-05-29T08:28:59.103Z,14896.00
2019-05-29T08:29:59.097Z,13744.00
2019-05-29T08:30:59.083Z,12232.00
2019-05-29T08:31:59.097Z,12648.00
2019-05-29T08:32:59.062Z,13648.00
2019-05-29T08:33:59.072Z,14932.00
2019-05-29T08:34:59.037Z,26080.00
2019-05-29T08:36:00.370Z,23936.00
2019-05-29T08:37:06.554Z,28064.00
2019-05-29T08:38:00.023Z,27168.00
2019-05-29T08:38:59.000Z,29376.00
2019-05-29T08:39:58.983Z,26336.00
2019-05-29T08:40:58.981Z,22720.00
2019-05-29T08:42:21.482Z,22912.00
2019-05-29T08:42:59.967Z,23776.00
2019-05-29T08:43:58.946Z,25728.00
2019-05-29T08:44:58.936Z,27296.00
2019-05-29T08:45:58.927Z,28064.00
2019-05-29T08:47:09.505Z,32992.00
2019-05-29T08:47:59.932Z,27616.00
2019-05-29T08:48:58.885Z,36576.00
2019-05-29T08:50:16.827Z,26912.00
2019-05-29T08:50:59.862Z,24640.00
2019-05-29T08:52:11.003Z,22592.00
2019-05-29T08:53:02.533Z,19872.00
2019-05-29T08:53:58.846Z,17248.00
2019-05-29T08:54:58.824Z,15948.00
2019-05-29T08:55:58.820Z,14888.00
2019-05-29T08:56:58.806Z,14660.00
2019-05-29T08:57:58.824Z,15232.00
2019-05-29T08:58:58.789Z,17408.00
2019-05-29T08:59:58.780Z,19808.00
2019-05-29T09:00:58.773Z,22304.00
2019-05-29T09:01:58.755Z,25376.00
2019-05-29T09:02:58.736Z,29056.00
2019-05-29T09:03:58.741Z,24832.00
2019-05-29T09:04:58.717Z,25056.00
2019-05-29T09:06:08.631Z,23552.00
2019-05-29T09:06:59.687Z,23200.00
2019-05-29T09:07:58.681Z,25664.00
2019-05-29T09:08:58.681Z,25792.00
2019-05-29T09:09:58.663Z,19072.00
2019-05-29T09:10:58.658Z,15656.00
2019-05-29T09:11:58.646Z,14500.00
2019-05-29T09:13:04.898Z,13676.00
2019-05-29T09:13:59.636Z,14292.00
2019-05-29T09:14:58.614Z,17600.00
2019-05-29T09:15:58.595Z,17472.00
2019-05-29T09:16:58.640Z,15272.00
2019-05-29T09:17:58.576Z,34208.00
2019-05-29T09:18:58.596Z,75232.00
2019-05-29T09:19:58.561Z,26400.00
2019-05-29T09:21:03.292Z,20640.00
2019-05-29T09:21:59.535Z,26496.00
2019-05-29T09:22:58.529Z,33120.00
2019-05-29T09:23:59.155Z,54848.00
2019-05-29T09:24:58.568Z,54528.00
2019-05-29T09:26:13.604Z,87520.00
2019-05-29T09:26:59.478Z,24640.00
2019-05-29T09:27:58.466Z,26880.00
2019-05-29T09:28:58.474Z,23104.00
2019-05-29T09:29:58.469Z,21696.00
2019-05-29T09:30:58.444Z,21632.00
2019-05-29T09:31:58.434Z,21088.00
2019-05-29T09:32:58.412Z,20704.00
2019-05-29T09:33:58.399Z,17280.00
2019-05-29T09:34:58.401Z,16344.00
2019-05-29T09:35:58.378Z,14928.00
2019-05-29T09:36:58.392Z,19232.00
2019-05-29T09:37:58.355Z,11712.00
2019-05-29T09:38:58.410Z,11688.00
2019-05-29T09:39:58.352Z,14596.00
2019-05-29T09:40:58.326Z,17376.00
2019-05-29T09:41:58.334Z,18976.00
2019-05-29T09:42:58.305Z,21056.00
2019-05-29T09:44:00.236Z,20992.00
2019-05-29T09:44:58.295Z,23200.00
2019-05-29T09:46:02.053Z,25664.00
2019-05-29T09:46:58.260Z,24960.00
2019-05-29T09:47:58.263Z,24256.00
2019-05-29T09:49:01.296Z,23552.00
2019-05-29T09:49:58.242Z,23520.00
2019-05-29T09:50:58.216Z,23616.00
2019-05-29T09:51:58.204Z,23360.00
2019-05-29T09:52:59.007Z,22560.00
2019-05-29T09:53:59.452Z,21248.00
2019-05-29T09:54:58.350Z,19808.00
2019-05-29T09:55:59.075Z,18784.00
2019-05-29T09:56:59.456Z,17824.00
2019-05-29T09:57:58.687Z,17504.00
2019-05-29T09:58:59.781Z,16512.00
2019-05-29T09:59:59.818Z,15148.00
2019-05-29T10:01:18.449Z,16800.00
2019-05-29T10:02:00.300Z,12944.00
2019-05-29T10:02:59.451Z,14536.00
2019-05-29T10:04:00.035Z,11524.00
2019-05-29T10:05:00.502Z,17536.00
2019-05-29T10:05:59.371Z,19744.00
2019-05-29T10:06:59.435Z,21408.00
2019-05-29T10:07:58.528Z,26336.00
2019-05-29T10:08:58.200Z,23104.00
2019-05-29T10:09:59.280Z,22624.00
2019-05-29T10:11:05.921Z,29056.00
2019-05-29T10:12:03.275Z,27232.00
2019-05-29T10:12:59.978Z,23424.00
2019-05-29T10:13:58.829Z,23232.00
2019-05-29T10:14:58.926Z,22240.00
2019-05-29T10:15:59.119Z,21056.00
2019-05-29T10:16:59.330Z,19680.00
2019-05-29T10:17:58.499Z,18016.00
2019-05-29T10:18:59.787Z,17184.00
2019-05-29T10:19:58.975Z,17984.00
2019-05-29T10:20:59.546Z,31712.00
2019-05-29T10:22:00.061Z,78848.00
2019-05-29T10:22:58.929Z,37888.00
2019-05-29T10:23:59.420Z,25728.00
2019-05-29T10:24:58.711Z,22112.00
2019-05-29T10:25:58.821Z,20992.00
2019-05-29T10:26:59.050Z,43104.00
2019-05-29T10:27:57.817Z,110208.00
2019-05-29T10:29:58.789Z,114976.00
2019-05-29T10:31:02.905Z,82560.00
2019-05-29T10:31:58.776Z,13152.00
2019-05-29T10:32:57.759Z,127072.00
2019-05-29T10:33:57.754Z,113024.00
2019-05-29T10:34:38.800Z,0.00
2019-05-29T10:34:57.734Z,86944.00
2019-05-29T10:35:57.740Z,84864.00
2019-05-29T10:36:57.715Z,83392.00
2019-05-29T10:37:57.704Z,19936.00
2019-05-29T10:38:57.692Z,29952.00
2019-05-29T10:39:57.706Z,38496.00
2019-05-29T10:41:06.264Z,33248.00
2019-05-29T10:41:58.664Z,22272.00
2019-05-29T10:42:57.655Z,16640.00
2019-05-29T10:43:57.640Z,16576.00
2019-05-29T10:44:57.631Z,58976.00
2019-05-29T10:45:57.680Z,33280.00
2019-05-29T10:46:57.609Z,12636.00
2019-05-29T10:47:57.601Z,11788.00
2019-05-29T10:48:57.588Z,16064.00
2019-05-29T10:49:57.582Z,15360.00
2019-05-29T10:50:57.576Z,23168.00
2019-05-29T10:52:11.955Z,31360.00
2019-05-29T10:52:58.545Z,20832.00
2019-05-29T10:53:59.118Z,50208.00
2019-05-29T10:54:57.531Z,25344.00
2019-05-29T10:55:57.525Z,42240.00
2019-05-29T10:56:57.538Z,28448.00
2019-05-29T10:57:57.487Z,103872.00
2019-05-29T10:58:59.784Z,23264.00
2019-05-29T10:59:57.470Z,24896.00
2019-05-29T11:00:57.463Z,51168.00
2019-05-29T11:01:57.456Z,27840.00
2019-05-29T11:02:57.758Z,128160.00
2019-05-29T11:03:57.432Z,40224.00
2019-05-29T11:04:59.541Z,114528.00
2019-05-29T11:05:57.409Z,108768.00
2019-05-29T11:06:57.433Z,114368.00
2019-05-29T11:07:57.406Z,110336.00
2019-05-29T11:08:57.372Z,93984.00
2019-05-29T11:09:57.364Z,66464.00
2019-05-29T11:10:57.366Z,131648.00
2019-05-29T11:11:57.812Z,128832.00
2019-05-29T11:12:57.326Z,81376.00
2019-05-29T11:13:57.352Z,119968.00
2019-05-29T11:14:57.308Z,32000.00
2019-05-29T11:15:57.296Z,33472.00
2019-05-29T11:16:57.661Z,24352.00
2019-05-29T11:17:57.442Z,24064.00
2019-05-29T11:18:57.695Z,23872.00
2019-05-29T11:19:58.261Z,23840.00
2019-05-29T11:20:57.603Z,24992.00
2019-05-29T11:22:04.577Z,86272.00
2019-05-29T11:22:58.239Z,114176.00
2019-05-29T11:23:58.258Z,22240.00
2019-05-29T11:25:00.190Z,31072.00
2019-05-29T11:25:58.265Z,125856.00
2019-05-29T11:26:57.182Z,113568.00
2019-05-29T11:27:58.554Z,113728.00
2019-05-29T11:28:58.611Z,51296.00
2019-05-29T11:29:57.215Z,114880.00
2019-05-29T11:30:57.284Z,112608.00
2019-05-29T11:31:57.135Z,49120.00
2019-05-29T11:32:59.203Z,115584.00
2019-05-29T11:33:57.289Z,93152.00
2019-05-29T11:34:57.518Z,50912.00
2019-05-29T11:36:09.484Z,24416.00
2019-05-29T11:36:58.360Z,21632.00
2019-05-29T11:37:57.065Z,19520.00
2019-05-29T11:39:01.386Z,23488.00
2019-05-29T11:39:59.015Z,16672.00
2019-05-29T11:41:20.234Z,16832.00
2019-05-29T11:41:58.936Z,15644.00
2019-05-29T11:42:57.032Z,109696.00
2019-05-29T11:43:57.031Z,110016.00
2019-05-29T11:44:57.012Z,112448.00
2019-05-29T11:45:57.390Z,111648.00
2019-05-29T11:46:58.185Z,109056.00
2019-05-29T11:47:59.154Z,108640.00
2019-05-29T11:48:57.378Z,106464.00
2019-05-29T11:50:07.369Z,105824.00
2019-05-29T11:50:58.262Z,102304.00
2019-05-29T11:52:18.789Z,97408.00
2019-05-29T11:52:58.537Z,89440.00
2019-05-29T11:53:57.522Z,84832.00
2019-05-29T11:54:59.971Z,87360.00
2019-05-29T11:55:58.030Z,95072.00
2019-05-29T11:56:57.347Z,108288.00
2019-05-29T11:57:57.955Z,119712.00
2019-05-29T11:58:57.124Z,122528.00
2019-05-29T12:00:00.195Z,115328.00
2019-05-29T12:00:57.829Z,105920.00
2019-05-29T12:01:57.303Z,99456.00
2019-05-29T12:02:57.757Z,97696.00
2019-05-29T12:04:20.557Z,103456.00
2019-05-29T12:05:01.152Z,109472.00
2019-05-29T12:05:57.819Z,111136.00
2019-05-29T12:06:57.550Z,106624.00
2019-05-29T12:07:57.550Z,98880.00